createdAt,value
2023-01-05T00:02:24.427Z,6.15
2023-01-05T00:07:28.473Z,6.13
2023-01-05T00:12:49.318Z,4.88
2023-01-05T00:18:11.867Z,6.30
2023-01-05T00:23:15.259Z,4.95
2023-01-05T00:28:18.853Z,4.53
2023-01-05T00:33:23.683Z,4.15
2023-01-05T00:43:30.347Z,4.90
2023-01-05T00:48:35.138Z,5.47
2023-01-05T00:58:41.791Z,4.65
2023-01-05T01:03:46.692Z,4.30
2023-01-05T01:08:50.400Z,4.75
2023-01-05T01:13:53.828Z,4.40
2023-01-05T01:19:02.943Z,7.47
2023-01-05T01:24:08.912Z,3.97
2023-01-05T01:29:12.702Z,7.80
2023-01-05T01:34:17.636Z,6.30
2023-01-05T01:39:21.294Z,4.72
2023-01-05T01:44:53.790Z,6.75
2023-01-05T01:50:00.310Z,6.15
2023-01-05T01:55:06.755Z,7.20
2023-01-05T02:00:15.080Z,5.38
2023-01-05T02:05:22.642Z,5.82
2023-01-05T02:10:37.438Z,6.63
2023-01-05T02:15:51.432Z,9.45
2023-01-05T02:21:15.003Z,8.47
2023-01-05T02:27:10.987Z,6.43
2023-01-05T02:32:22.247Z,5.55
2023-01-05T02:37:30.777Z,7.85
2023-01-05T02:42:36.932Z,4.43
2023-01-05T02:47:43.857Z,4.45
2023-01-05T02:52:55.769Z,3.78
2023-01-05T02:58:04.301Z,4.43
2023-01-05T03:03:14.842Z,5.35
2023-01-05T03:08:30.612Z,5.45
2023-01-05T03:13:44.775Z,5.70
2023-01-05T03:19:10.454Z,4.47
2023-01-05T03:24:31.775Z,4.47
2023-01-05T03:29:52.580Z,5.68
2023-01-05T03:35:20.981Z,5.40
2023-01-05T03:40:29.703Z,4.20
2023-01-05T03:45:40.753Z,3.90
2023-01-05T03:50:45.746Z,4.07
2023-01-05T03:55:49.208Z,3.70
2023-01-05T04:00:52.773Z,4.22
2023-01-05T04:05:57.620Z,5.68
2023-01-05T04:11:12.174Z,4.17
2023-01-05T04:16:15.694Z,5.85
2023-01-05T04:21:20.646Z,6.00
2023-01-05T04:26:24.128Z,3.93
2023-01-05T04:31:27.805Z,3.67
2023-01-05T04:36:32.809Z,6.33
2023-01-05T04:41:36.406Z,6.18
2023-01-05T04:46:40.137Z,5.60
2023-01-05T04:51:45.181Z,6.47
2023-01-05T04:56:48.822Z,7.55
2023-01-05T05:01:52.477Z,8.60
2023-01-05T05:06:57.650Z,5.10
2023-01-05T05:12:01.287Z,8.45
2023-01-05T05:17:04.988Z,7.07
2023-01-05T05:22:10.261Z,7.03
2023-01-05T05:27:13.986Z,4.60
2023-01-05T05:32:17.591Z,6.97
2023-01-05T05:37:22.617Z,4.53
2023-01-05T05:42:26.027Z,5.07
2023-01-05T05:47:29.737Z,5.22
2023-01-05T05:52:34.511Z,4.00
2023-01-05T06:02:41.367Z,3.70
2023-01-05T06:07:46.480Z,4.13
2023-01-05T06:12:49.838Z,4.37
2023-01-05T06:17:53.572Z,4.07
2023-01-05T06:22:58.350Z,5.33
2023-01-05T06:33:05.248Z,4.05
2023-01-05T06:38:11.466Z,8.97
2023-01-05T06:43:14.841Z,4.83
2023-01-05T06:48:18.242Z,4.23
2023-01-05T06:53:22.965Z,4.20
2023-01-05T07:03:29.767Z,5.43
2023-01-05T07:08:34.837Z,5.47
2023-01-05T07:13:38.291Z,5.53
2023-01-05T07:18:41.932Z,5.33
2023-01-05T07:23:46.953Z,6.70
2023-01-05T07:28:50.479Z,4.95
2023-01-05T07:33:53.967Z,5.90
2023-01-05T07:38:59.752Z,3.30
2023-01-05T07:44:03.314Z,4.47
2023-01-05T07:49:07.029Z,4.70
2023-01-05T07:54:11.934Z,5.90
2023-01-05T07:59:15.712Z,5.90
2023-01-05T08:04:19.187Z,6.60
2023-01-05T08:09:41.574Z,3.90
2023-01-05T08:14:45.034Z,4.53
2023-01-05T08:19:48.627Z,4.23
2023-01-05T08:24:53.544Z,4.33
2023-01-05T08:29:57.235Z,5.40
2023-01-05T08:35:00.534Z,4.22
2023-01-05T08:40:07.186Z,4.37
2023-01-05T08:45:11.582Z,7.10
2023-01-05T08:50:15.029Z,6.63
2023-01-05T09:00:25.249Z,5.45
2023-01-05T09:05:28.702Z,5.55
2023-01-05T09:10:33.815Z,5.63
2023-01-05T09:15:37.297Z,5.20
2023-01-05T09:20:40.915Z,5.83
2023-01-05T09:25:45.649Z,4.37
2023-01-05T09:35:56.358Z,4.77
2023-01-05T09:41:06.601Z,4.50
2023-01-05T09:46:14.933Z,4.60
2023-01-05T09:51:18.428Z,6.60
2023-01-05T10:01:56.907Z,8.97
2023-01-05T10:07:04.901Z,8.70
2023-01-05T10:12:36.204Z,8.40
2023-01-05T10:17:43.890Z,5.93
2023-01-05T10:23:02.632Z,5.75
2023-01-05T10:28:22.516Z,11.07
2023-01-05T10:33:41.705Z,4.93
2023-01-05T10:38:57.317Z,6.33
2023-01-05T10:44:23.059Z,9.93
2023-01-05T10:49:29.188Z,9.27
2023-01-05T10:54:40.148Z,7.10
2023-01-05T10:59:58.107Z,6.83
2023-01-05T11:05:06.360Z,7.13
2023-01-05T11:10:22.667Z,8.20
2023-01-05T11:15:27.718Z,6.70
2023-01-05T11:20:31.334Z,5.53
2023-01-05T11:25:35.174Z,7.40
2023-01-05T11:30:43.393Z,5.67
2023-01-05T11:35:47.108Z,5.40
2023-01-05T11:40:50.773Z,3.53
2023-01-05T11:45:58.251Z,5.87
2023-01-05T11:51:02.990Z,5.40
2023-01-05T11:56:15.692Z,7.63
2023-01-05T12:01:56.009Z,5.73
2023-01-05T12:07:14.851Z,10.20
2023-01-05T12:12:37.819Z,8.47
2023-01-05T12:17:52.235Z,7.13
2023-01-05T12:23:22.337Z,6.97
2023-01-05T12:28:42.541Z,5.97
2023-01-05T12:34:13.402Z,6.40
2023-01-05T12:39:48.318Z,6.47
2023-01-05T12:45:09.877Z,9.13
2023-01-05T12:50:27.960Z,5.33
2023-01-05T12:55:39.343Z,5.57
2023-01-05T13:00:46.662Z,8.53
2023-01-05T13:05:59.479Z,8.30
2023-01-05T13:11:09.106Z,9.57
2023-01-05T13:16:16.789Z,7.87
2023-01-05T13:21:23.077Z,7.87
2023-01-05T13:26:26.751Z,8.03
2023-01-05T13:31:54.497Z,11.00
2023-01-05T13:37:21.095Z,6.87
2023-01-05T13:42:52.946Z,7.83
2023-01-05T13:48:34.066Z,11.70
2023-01-05T13:53:52.567Z,8.73
2023-01-05T13:59:02.764Z,8.67
2023-01-05T14:04:08.160Z,9.63
2023-01-05T14:09:19.060Z,6.20
2023-01-05T14:19:53.913Z,12.23
2023-01-05T14:24:58.870Z,6.40
2023-01-05T14:30:04.501Z,8.57
2023-01-05T14:35:20.399Z,9.67
2023-01-05T14:40:51.595Z,9.50
2023-01-05T14:46:05.020Z,11.67
2023-01-05T14:51:13.531Z,8.27
2023-01-05T14:56:22.690Z,8.67
2023-01-05T15:01:30.331Z,12.00
2023-01-05T15:06:47.825Z,9.50
2023-01-05T15:12:30.138Z,8.07
2023-01-05T15:18:11.538Z,14.77
2023-01-05T15:23:36.590Z,11.93
2023-01-05T15:29:05.997Z,13.23
2023-01-05T15:34:20.365Z,11.80
2023-01-05T15:39:26.391Z,12.65
2023-01-05T15:44:34.355Z,13.90
2023-01-05T15:49:41.361Z,12.97
2023-01-05T15:54:44.869Z,9.57
2023-01-05T15:59:50.671Z,10.57
2023-01-05T16:05:15.563Z,10.47
2023-01-05T16:10:22.876Z,11.57
2023-01-05T16:15:27.431Z,13.67
2023-01-05T16:20:33.085Z,13.93
2023-01-05T16:25:41.067Z,11.00
2023-01-05T16:30:46.317Z,13.70
2023-01-05T16:35:53.055Z,14.00
2023-01-05T16:41:15.097Z,11.37
2023-01-05T16:46:41.027Z,14.00
2023-01-05T16:51:46.188Z,15.67
2023-01-05T16:56:57.989Z,15.10
2023-01-05T17:02:02.171Z,12.97
2023-01-05T17:07:07.561Z,18.75
2023-01-05T17:12:12.187Z,13.93
2023-01-05T17:17:16.291Z,15.97
2023-01-05T17:27:24.768Z,17.50
2023-01-05T17:32:28.174Z,13.45
2023-01-05T17:37:33.286Z,18.83
2023-01-05T17:42:45.664Z,20.40
2023-01-05T17:47:50.278Z,13.57
2023-01-05T17:52:55.492Z,17.77
2023-01-05T17:57:59.894Z,17.13
2023-01-05T18:03:03.263Z,17.07
2023-01-05T18:08:08.367Z,15.13
2023-01-05T18:13:12.492Z,16.60
2023-01-05T18:18:16.607Z,15.13
2023-01-05T18:23:24.472Z,13.80
2023-01-05T18:28:29.797Z,11.77
2023-01-05T18:33:33.881Z,11.57
2023-01-05T18:38:39.286Z,9.77
2023-01-05T18:43:42.945Z,8.63
2023-01-05T18:48:50.421Z,11.07
2023-01-05T18:53:55.194Z,8.70
2023-01-05T18:58:59.025Z,9.70
2023-01-05T19:09:10.236Z,11.87
2023-01-05T19:14:14.983Z,9.70
2023-01-05T19:19:20.438Z,9.87
2023-01-05T19:24:27.057Z,9.50
2023-01-05T19:29:30.669Z,10.40
2023-01-05T19:34:34.115Z,8.50
2023-01-05T19:39:39.121Z,9.30
2023-01-05T19:44:42.654Z,9.00
2023-01-05T19:49:46.210Z,8.38
2023-01-05T19:54:51.052Z,9.65
2023-01-05T19:59:54.857Z,8.43
2023-01-05T20:04:58.333Z,7.90
2023-01-05T20:10:03.332Z,11.18
2023-01-05T20:15:07.485Z,11.63
2023-01-05T20:20:12.982Z,6.53
2023-01-05T20:25:17.880Z,8.80
2023-01-05T20:30:21.597Z,8.13
2023-01-05T20:35:25.136Z,8.07
2023-01-05T20:45:33.775Z,7.53
2023-01-05T20:50:37.249Z,8.68
2023-01-05T20:55:42.273Z,7.03
2023-01-05T21:01:09.542Z,7.63
2023-01-05T21:06:11.806Z,10.23
2023-01-05T21:11:18.438Z,8.83
2023-01-05T21:16:26.279Z,6.50
2023-01-05T21:21:30.911Z,10.07
2023-01-05T21:26:36.038Z,7.43
2023-01-05T21:31:39.747Z,8.60
2023-01-05T21:36:45.569Z,6.07
2023-01-05T21:42:09.994Z,4.67
2023-01-05T21:47:14.294Z,8.27
2023-01-05T21:52:34.857Z,7.27
2023-01-05T21:57:39.945Z,6.50
2023-01-05T22:02:43.321Z,7.57
2023-01-05T22:07:46.923Z,8.23
2023-01-05T22:12:51.629Z,6.93
2023-01-05T22:17:55.389Z,9.07
2023-01-05T22:22:58.697Z,10.27
2023-01-05T22:28:03.655Z,9.23
2023-01-05T22:33:07.086Z,8.53
2023-01-05T22:43:15.040Z,5.75
2023-01-05T22:48:19.615Z,7.17
2023-01-05T22:53:22.926Z,10.00
2023-01-05T23:03:31.281Z,8.37
2023-01-05T23:08:35.751Z,6.30
2023-01-05T23:13:41.363Z,6.87
2023-01-05T23:18:45.267Z,10.73
2023-01-05T23:23:49.388Z,7.97
2023-01-05T23:28:55.269Z,7.17
2023-01-05T23:33:59.077Z,7.80
2023-01-05T23:39:02.734Z,8.43
2023-01-05T23:44:08.299Z,6.83
2023-01-05T23:49:11.555Z,5.67
2023-01-05T23:59:19.867Z,6.45
